Time;durP1;ratioP1;P1;durP2;ratioP2;P2;SDS_P1;SDS_P2;PMS_P1;PMS_P2;Temp;Humidity;BMP_temperature;BMP_pressure;BME280_temperature;BME280_humidity;BME280_pressure;Samples;Min_cycle;Max_cycle;Signal;HPM_P1;HPM_P2
2023/12/04 00:00:40;;;;;;;22.67;12.75;;;;;;;;;;5146759;27;20061;-75
2023/12/04 00:03:06;;;;;;;23.85;11.98;;;;;;;;;;5146764;27;20055;-75
2023/12/04 00:05:33;;;;;;;19.95;11.25;;;;;;;;;;5146262;27;20548;-75
2023/12/04 00:08:00;;;;;;;22.10;12.52;;;;;;;;;;5147102;27;20534;-76
2023/12/04 00:10:26;;;;;;;21.42;12.35;;;;;;;;;;5146053;27;20492;-75
2023/12/04 00:12:52;;;;;;;22.30;11.82;;;;;;;;;;5145301;27;20803;-75
2023/12/04 00:15:19;;;;;;;21.02;12.25;;;;;;;;;;5147917;27;20043;-76
2023/12/04 00:17:45;;;;;;;25.20;12.88;;;;;;;;;;5146316;27;20416;-75
2023/12/04 00:20:12;;;;;;;28.15;14.23;;;;;;;;;;5147146;27;20463;-76
2023/12/04 00:22:38;;;;;;;23.30;12.18;;;;;;;;;;5146144;27;20129;-75
2023/12/04 00:25:06;;;;;;;22.27;12.23;;;;;;;;;;5146408;27;20054;-75
2023/12/04 00:27:32;;;;;;;25.13;11.80;;;;;;;;;;5143119;27;20051;-75
2023/12/04 00:29:59;;;;;;;21.45;12.38;;;;;;;;;;5147064;27;20553;-75
2023/12/04 00:32:25;;;;;;;21.40;12.02;;;;;;;;;;5147140;27;20055;-75
2023/12/04 00:34:52;;;;;;;26.77;12.52;;;;;;;;;;5145246;27;20075;-75
2023/12/04 00:37:18;;;;;;;24.10;12.18;;;;;;;;;;5145686;27;20112;-76
2023/12/04 00:39:45;;;;;;;21.60;11.35;;;;;;;;;;5146256;27;20055;-75
2023/12/04 00:42:11;;;;;;;23.65;12.63;;;;;;;;;;5146632;27;20051;-76
2023/12/04 00:44:38;;;;;;;25.35;13.40;;;;;;;;;;5145998;27;20137;-76
2023/12/04 00:47:04;;;;;;;20.83;12.60;;;;;;;;;;5146096;27;20138;-75
2023/12/04 00:49:30;;;;;;;24.85;13.25;;;;;;;;;;5146174;27;20074;-75
2023/12/04 00:51:57;;;;;;;23.08;12.02;;;;;;;;;;5145127;27;20082;-75
2023/12/04 00:54:23;;;;;;;23.85;12.07;;;;;;;;;;5146219;27;20047;-76
2023/12/04 00:56:50;;;;;;;23.15;12.32;;;;;;;;;;5146525;27;20055;-75
2023/12/04 00:59:16;;;;;;;24.65;13.00;;;;;;;;;;5146495;27;20055;-76
2023/12/04 01:01:43;;;;;;;25.48;12.45;;;;;;;;;;5145893;27;20673;-76
2023/12/04 01:04:09;;;;;;;23.50;13.93;;;;;;;;;;5145951;27;20051;-75
2023/12/04 01:06:35;;;;;;;21.80;12.10;;;;;;;;;;5144798;27;20083;-76
2023/12/04 01:09:02;;;;;;;28.85;13.68;;;;;;;;;;5146122;27;20051;-76
2023/12/04 01:11:28;;;;;;;24.67;13.40;;;;;;;;;;5146301;27;20055;-76
2023/12/04 01:13:54;;;;;;;26.45;14.63;;;;;;;;;;5147684;27;20101;-75
2023/12/04 01:16:21;;;;;;;26.77;13.85;;;;;;;;;;5149949;27;20057;-75
2023/12/04 01:18:48;;;;;;;27.10;13.10;;;;;;;;;;5150634;27;20142;-75
2023/12/04 01:21:14;;;;;;;25.50;12.98;;;;;;;;;;5149401;27;20614;-76
2023/12/04 01:23:41;;;;;;;26.05;13.02;;;;;;;;;;5150133;27;20951;-75
2023/12/04 01:26:09;;;;;;;28.73;14.15;;;;;;;;;;5149888;27;20255;-76
2023/12/04 01:28:36;;;;;;;26.20;13.43;;;;;;;;;;5150225;27;20500;-75
2023/12/04 01:31:02;;;;;;;27.35;13.77;;;;;;;;;;5150158;27;20188;-76
2023/12/04 01:33:29;;;;;;;24.83;12.57;;;;;;;;;;5149348;27;20568;-76
2023/12/04 01:35:57;;;;;;;29.40;14.90;;;;;;;;;;5149516;27;20055;-76
2023/12/04 01:38:23;;;;;;;26.63;13.88;;;;;;;;;;5151159;27;20149;-75
2023/12/04 01:40:49;;;;;;;26.48;13.48;;;;;;;;;;5153350;27;20108;-76
2023/12/04 01:43:16;;;;;;;29.75;14.52;;;;;;;;;;5152728;27;20051;-74
2023/12/04 01:45:42;;;;;;;27.23;13.68;;;;;;;;;;5149307;27;20644;-75
2023/12/04 01:48:08;;;;;;;25.05;13.70;;;;;;;;;;5149674;27;20080;-75
2023/12/04 01:50:35;;;;;;;26.42;14.48;;;;;;;;;;5148915;27;20132;-75
2023/12/04 01:53:01;;;;;;;28.83;13.73;;;;;;;;;;5149681;27;20526;-75
2023/12/04 01:55:28;;;;;;;27.30;14.02;;;;;;;;;;5149017;27;20139;-75
2023/12/04 01:57:56;;;;;;;28.40;15.70;;;;;;;;;;5149332;27;20104;-75
2023/12/04 02:00:22;;;;;;;26.63;14.45;;;;;;;;;;5149402;27;20043;-75
2023/12/04 02:02:49;;;;;;;29.27;14.40;;;;;;;;;;5149410;27;20051;-75
2023/12/04 02:05:16;;;;;;;28.65;14.68;;;;;;;;;;5148207;27;20047;-74
2023/12/04 02:07:43;;;;;;;26.73;14.40;;;;;;;;;;5149255;27;20246;-75
2023/12/04 02:10:09;;;;;;;32.40;15.23;;;;;;;;;;5148729;27;20078;-75
2023/12/04 02:12:36;;;;;;;24.70;13.15;;;;;;;;;;5148330;27;20048;-76
2023/12/04 02:15:02;;;;;;;28.52;15.13;;;;;;;;;;5148912;27;20051;-75
2023/12/04 02:17:29;;;;;;;25.23;14.38;;;;;;;;;;5148716;27;20104;-75
2023/12/04 02:19:57;;;;;;;28.45;13.65;;;;;;;;;;5148588;27;20051;-75
2023/12/04 02:22:23;;;;;;;31.50;15.18;;;;;;;;;;5148778;27;20399;-75
2023/12/04 02:24:49;;;;;;;26.63;14.20;;;;;;;;;;5148519;27;20065;-76
2023/12/04 02:27:18;;;;;;;29.30;15.05;;;;;;;;;;5148926;27;20051;-76
2023/12/04 02:29:51;;;;;;;25.02;13.73;;;;;;;;;;5147850;27;20374;-76
2023/12/04 02:32:19;;;;;;;29.48;15.88;;;;;;;;;;5149251;27;20108;-76
2023/12/04 02:34:47;;;;;;;24.38;13.25;;;;;;;;;;5148340;27;20130;-75
2023/12/04 02:37:14;;;;;;;27.55;15.07;;;;;;;;;;5148451;27;20090;-76
2023/12/04 02:39:41;;;;;;;25.95;13.55;;;;;;;;;;5148438;27;20043;-76
2023/12/04 02:42:08;;;;;;;25.00;14.18;;;;;;;;;;5148577;27;20343;-75
2023/12/04 02:44:34;;;;;;;27.23;13.65;;;;;;;;;;5148238;27;20059;-75
2023/12/04 02:47:00;;;;;;;25.65;13.43;;;;;;;;;;5148423;27;20142;-76
2023/12/04 02:49:27;;;;;;;22.30;13.13;;;;;;;;;;5147541;27;20061;-76
2023/12/04 02:51:53;;;;;;;29.33;15.02;;;;;;;;;;5148412;27;20546;-76
2023/12/04 02:54:20;;;;;;;23.70;13.38;;;;;;;;;;5148736;27;20108;-76
2023/12/04 02:56:46;;;;;;;24.52;13.13;;;;;;;;;;5147827;27;20574;-75
2023/12/04 02:59:12;;;;;;;22.52;12.88;;;;;;;;;;5148201;27;20043;-76
2023/12/04 03:01:39;;;;;;;25.13;13.80;;;;;;;;;;5148115;27;20078;-75
2023/12/04 03:04:05;;;;;;;23.98;12.90;;;;;;;;;;5147635;27;20142;-76
2023/12/04 03:06:32;;;;;;;27.02;13.52;;;;;;;;;;5148558;27;20511;-76
2023/12/04 03:08:59;;;;;;;24.65;13.00;;;;;;;;;;5147739;27;20059;-76
2023/12/04 03:11:25;;;;;;;28.60;14.25;;;;;;;;;;5148098;27;20058;-76
2023/12/04 03:13:52;;;;;;;22.63;13.15;;;;;;;;;;5148450;27;20058;-76
2023/12/04 03:16:19;;;;;;;26.55;14.63;;;;;;;;;;5148021;27;20051;-75
2023/12/04 03:18:45;;;;;;;25.15;13.00;;;;;;;;;;5146593;27;20070;-76
2023/12/04 03:21:12;;;;;;;27.02;13.60;;;;;;;;;;5147568;27;20047;-75
2023/12/04 03:23:38;;;;;;;24.40;12.90;;;;;;;;;;5147698;27;20111;-75
2023/12/04 03:26:05;;;;;;;26.17;14.20;;;;;;;;;;5147577;27;20051;-76
2023/12/04 03:28:31;;;;;;;27.60;13.55;;;;;;;;;;5147889;27;20058;-75
2023/12/04 03:30:58;;;;;;;23.85;13.27;;;;;;;;;;5147665;27;20047;-75
2023/12/04 03:33:24;;;;;;;30.27;13.77;;;;;;;;;;5147298;27;20184;-75
2023/12/04 03:35:51;;;;;;;21.58;12.55;;;;;;;;;;5146563;27;20519;-77
2023/12/04 03:38:17;;;;;;;20.75;11.80;;;;;;;;;;5147904;27;20519;-76
2023/12/04 03:40:44;;;;;;;25.58;14.00;;;;;;;;;;5146567;27;20058;-76
2023/12/04 03:43:10;;;;;;;23.52;13.10;;;;;;;;;;5147451;27;20055;-76
2023/12/04 03:45:37;;;;;;;20.20;12.02;;;;;;;;;;5146919;27;20124;-76
2023/12/04 03:48:03;;;;;;;25.85;13.45;;;;;;;;;;5147435;27;20058;-76
2023/12/04 03:50:29;;;;;;;23.25;12.60;;;;;;;;;;5147358;27;20104;-75
2023/12/04 03:52:56;;;;;;;21.52;12.48;;;;;;;;;;5147392;27;20047;-76
2023/12/04 03:55:22;;;;;;;25.02;13.50;;;;;;;;;;5147686;27;20583;-76
2023/12/04 03:57:49;;;;;;;24.08;13.00;;;;;;;;;;5147160;27;20146;-76
2023/12/04 04:00:16;;;;;;;24.00;13.18;;;;;;;;;;5147122;27;20055;-76
2023/12/04 04:02:43;;;;;;;21.27;12.18;;;;;;;;;;5145919;27;20066;-76
2023/12/04 04:05:09;;;;;;;23.42;12.70;;;;;;;;;;5146662;27;20055;-76
2023/12/04 04:07:36;;;;;;;21.00;11.88;;;;;;;;;;5146874;27;20061;-75
2023/12/04 04:10:04;;;;;;;21.02;12.43;;;;;;;;;;5147907;27;20055;-76
2023/12/04 04:12:30;;;;;;;20.23;11.90;;;;;;;;;;5146587;27;20500;-76
2023/12/04 04:14:57;;;;;;;19.92;11.50;;;;;;;;;;5147413;27;20058;-76
2023/12/04 04:17:27;;;;;;;20.88;11.77;;;;;;;;;;5145385;27;20567;-76
2023/12/04 04:19:53;;;;;;;20.17;11.38;;;;;;;;;;5147250;27;20050;-75
2023/12/04 04:22:20;;;;;;;21.08;11.40;;;;;;;;;;5147467;27;20051;-76
2023/12/04 04:24:47;;;;;;;20.35;12.10;;;;;;;;;;5147458;27;20120;-75
2023/12/04 04:27:13;;;;;;;21.60;11.88;;;;;;;;;;5147336;27;20130;-74
2023/12/04 04:29:39;;;;;;;18.15;11.25;;;;;;;;;;5146213;27;20605;-74
2023/12/04 04:32:06;;;;;;;19.55;11.48;;;;;;;;;;5146697;27;20594;-75
2023/12/04 04:34:32;;;;;;;20.88;10.68;;;;;;;;;;5147470;27;20055;-76
2023/12/04 04:36:59;;;;;;;18.58;11.10;;;;;;;;;;5146693;27;20055;-74
2023/12/04 04:39:26;;;;;;;19.67;11.13;;;;;;;;;;5147127;27;20051;-74
2023/12/04 04:41:52;;;;;;;18.40;11.15;;;;;;;;;;5147576;27;20062;-74
2023/12/04 04:44:19;;;;;;;22.48;11.18;;;;;;;;;;5146952;27;20579;-74
2023/12/04 04:46:45;;;;;;;18.02;10.60;;;;;;;;;;5147180;27;20039;-74
2023/12/04 04:49:11;;;;;;;23.27;11.82;;;;;;;;;;5147189;27;20085;-74
2023/12/04 04:51:38;;;;;;;25.67;11.38;;;;;;;;;;5147861;27;20059;-74
2023/12/04 04:54:04;;;;;;;18.63;10.55;;;;;;;;;;5147030;27;20161;-76
2023/12/04 04:56:31;;;;;;;17.65;11.18;;;;;;;;;;5145660;27;20525;-74
2023/12/04 04:58:57;;;;;;;18.85;11.60;;;;;;;;;;5146093;27;20142;-74
2023/12/04 05:01:23;;;;;;;16.42;10.77;;;;;;;;;;5145951;27;20074;-74
2023/12/04 05:03:50;;;;;;;17.98;10.00;;;;;;;;;;5146586;27;20079;-74
2023/12/04 05:06:17;;;;;;;16.88;9.63;;;;;;;;;;5146587;27;20051;-75
2023/12/04 05:08:43;;;;;;;21.00;11.75;;;;;;;;;;5146532;27;20098;-76
2023/12/04 05:11:09;;;;;;;17.52;10.80;;;;;;;;;;5146164;27;20151;-76
2023/12/04 05:13:36;;;;;;;18.17;10.50;;;;;;;;;;5145534;27;20083;-75
2023/12/04 05:16:02;;;;;;;17.83;10.77;;;;;;;;;;5146635;27;20444;-76
2023/12/04 05:18:29;;;;;;;19.17;10.35;;;;;;;;;;5145827;27;20177;-76
2023/12/04 05:20:55;;;;;;;18.52;11.35;;;;;;;;;;5145793;27;20051;-76
2023/12/04 05:23:22;;;;;;;20.58;11.50;;;;;;;;;;5146533;27;20104;-75
2023/12/04 05:25:48;;;;;;;19.40;11.40;;;;;;;;;;5145726;27;20484;-75
2023/12/04 05:28:16;;;;;;;20.48;10.55;;;;;;;;;;5145726;27;20051;-75
2023/12/04 05:30:42;;;;;;;17.85;9.40;;;;;;;;;;5145948;27;20446;-75
2023/12/04 05:33:09;;;;;;;19.15;10.20;;;;;;;;;;5146053;27;20051;-75
2023/12/04 05:35:37;;;;;;;17.27;9.80;;;;;;;;;;5145645;27;20047;-75
2023/12/04 05:38:03;;;;;;;18.27;10.10;;;;;;;;;;5146357;27;20130;-75
2023/12/04 05:40:29;;;;;;;18.30;10.45;;;;;;;;;;5145743;27;20066;-75
2023/12/04 05:42:56;;;;;;;19.38;10.68;;;;;;;;;;5145302;27;20044;-75
2023/12/04 05:45:22;;;;;;;18.80;11.05;;;;;;;;;;5145579;27;20055;-75
2023/12/04 05:47:49;;;;;;;14.25;9.60;;;;;;;;;;5135321;27;20105;-75
2023/12/04 05:50:15;;;;;;;16.23;9.80;;;;;;;;;;5146217;27;20077;-75
2023/12/04 05:52:41;;;;;;;14.40;9.32;;;;;;;;;;5145962;27;20046;-75
2023/12/04 05:55:08;;;;;;;16.15;9.43;;;;;;;;;;5145737;27;20053;-75
2023/12/04 05:57:34;;;;;;;15.63;9.43;;;;;;;;;;5145285;27;20054;-74
2023/12/04 06:00:01;;;;;;;15.05;9.45;;;;;;;;;;5148386;27;20106;-75
2023/12/04 06:02:30;;;;;;;18.17;9.93;;;;;;;;;;5138097;27;20670;-74
2023/12/04 06:04:56;;;;;;;16.13;9.05;;;;;;;;;;5129176;27;20062;-74
2023/12/04 06:07:23;;;;;;;15.25;9.30;;;;;;;;;;5128664;27;20062;-74
2023/12/04 06:09:49;;;;;;;13.95;8.80;;;;;;;;;;5134605;27;20557;-74
2023/12/04 06:12:15;;;;;;;14.57;9.70;;;;;;;;;;5148827;27;20094;-75
2023/12/04 06:14:42;;;;;;;13.98;9.07;;;;;;;;;;5147613;27;20415;-74
2023/12/04 06:17:08;;;;;;;19.25;9.13;;;;;;;;;;5149320;27;20058;-75
2023/12/04 06:19:34;;;;;;;17.02;9.32;;;;;;;;;;5148804;27;20134;-74
2023/12/04 06:22:01;;;;;;;16.73;9.68;;;;;;;;;;5148951;27;20060;-73
2023/12/04 06:24:27;;;;;;;14.02;8.55;;;;;;;;;;5134650;27;20056;-75
2023/12/04 06:26:54;;;;;;;16.88;9.10;;;;;;;;;;5128283;27;20499;-75
2023/12/04 06:29:20;;;;;;;15.75;8.75;;;;;;;;;;5128793;27;20543;-74
2023/12/04 06:31:47;;;;;;;14.07;8.35;;;;;;;;;;5144699;27;20051;-74
2023/12/04 06:34:13;;;;;;;16.45;9.18;;;;;;;;;;5146680;27;20062;-75
2023/12/04 06:36:40;;;;;;;14.50;8.70;;;;;;;;;;5147979;27;20051;-75
2023/12/04 06:39:09;;;;;;;12.95;8.38;;;;;;;;;;5138970;27;20051;-73
2023/12/04 06:41:36;;;;;;;15.13;9.35;;;;;;;;;;5150652;27;20571;-74
2023/12/04 06:44:02;;;;;;;15.15;8.68;;;;;;;;;;5153333;27;20055;-74
2023/12/04 06:46:30;;;;;;;13.73;8.75;;;;;;;;;;5144849;27;20104;-76
2023/12/04 06:48:57;;;;;;;15.85;9.48;;;;;;;;;;5147094;27;20090;-75
2023/12/04 06:51:23;;;;;;;15.57;8.98;;;;;;;;;;5146571;27;20047;-75
2023/12/04 06:53:50;;;;;;;14.55;9.13;;;;;;;;;;5145357;27;20453;-76
2023/12/04 06:56:16;;;;;;;14.07;8.80;;;;;;;;;;5146363;27;20055;-75
2023/12/04 06:58:46;;;;;;;15.43;9.27;;;;;;;;;;5154843;27;20988;-74
2023/12/04 07:01:12;;;;;;;13.57;8.57;;;;;;;;;;5147296;27;20161;-75
2023/12/04 07:03:39;;;;;;;15.80;8.98;;;;;;;;;;5162067;27;20525;-75
2023/12/04 07:06:06;;;;;;;12.55;7.88;;;;;;;;;;5125458;27;20055;-75
2023/12/04 07:08:32;;;;;;;12.35;8.25;;;;;;;;;;5128914;27;20166;-75
2023/12/04 07:10:58;;;;;;;13.45;9.13;;;;;;;;;;5138961;27;20047;-75
2023/12/04 07:13:25;;;;;;;13.35;8.70;;;;;;;;;;5132229;27;20055;-75
2023/12/04 07:15:51;;;;;;;15.95;9.73;;;;;;;;;;5162919;27;20046;-75
2023/12/04 07:18:18;;;;;;;14.55;8.70;;;;;;;;;;5146941;27;20055;-75
2023/12/04 07:20:44;;;;;;;14.30;8.93;;;;;;;;;;5145202;27;20047;-75
2023/12/04 07:23:11;;;;;;;12.80;8.70;;;;;;;;;;5145077;27;20055;-75
2023/12/04 07:25:37;;;;;;;13.43;8.30;;;;;;;;;;5143880;27;20583;-75
2023/12/04 07:28:03;;;;;;;11.32;7.78;;;;;;;;;;5143715;27;20501;-75
2023/12/04 07:30:30;;;;;;;11.70;7.85;;;;;;;;;;5144843;27;20126;-75
2023/12/04 07:32:56;;;;;;;16.10;8.90;;;;;;;;;;5145480;27;20047;-74
2023/12/04 07:35:23;;;;;;;11.30;7.97;;;;;;;;;;5145803;27;20051;-74
2023/12/04 07:37:49;;;;;;;12.07;7.72;;;;;;;;;;5143895;27;20059;-75
2023/12/04 07:40:16;;;;;;;12.93;8.07;;;;;;;;;;5139947;27;20055;-75
2023/12/04 07:42:42;;;;;;;13.30;8.27;;;;;;;;;;5144415;27;20131;-75
2023/12/04 07:45:10;;;;;;;13.02;7.78;;;;;;;;;;5144542;27;20084;-75
2023/12/04 07:47:36;;;;;;;20.10;9.70;;;;;;;;;;5144336;27;20066;-75
2023/12/04 07:50:03;;;;;;;14.30;7.72;;;;;;;;;;5144820;27;20054;-75
2023/12/04 07:52:30;;;;;;;13.48;7.43;;;;;;;;;;5144054;27;20106;-75
2023/12/04 07:54:57;;;;;;;11.20;7.65;;;;;;;;;;5144774;27;20054;-75
2023/12/04 07:57:23;;;;;;;11.68;7.65;;;;;;;;;;5144699;27;20588;-75
2023/12/04 07:59:49;;;;;;;12.93;8.57;;;;;;;;;;5145289;27;20051;-75
2023/12/04 08:02:17;;;;;;;11.40;7.93;;;;;;;;;;5146691;27;20051;-75
2023/12/04 08:04:44;;;;;;;12.30;8.02;;;;;;;;;;5145062;27;20320;-75
2023/12/04 08:07:11;;;;;;;10.85;7.03;;;;;;;;;;5138903;27;20051;-75
2023/12/04 08:09:37;;;;;;;12.13;7.75;;;;;;;;;;5142243;27;20585;-75
2023/12/04 08:12:04;;;;;;;11.82;7.47;;;;;;;;;;5126548;27;20066;-75
2023/12/04 08:14:30;;;;;;;10.15;6.75;;;;;;;;;;5143832;27;20139;-75
2023/12/04 08:16:56;;;;;;;10.80;7.55;;;;;;;;;;5144053;27;20051;-75
2023/12/04 08:19:23;;;;;;;11.13;7.38;;;;;;;;;;5142336;27;20142;-75
2023/12/04 08:21:50;;;;;;;10.63;7.45;;;;;;;;;;5143495;27;20047;-75
2023/12/04 08:24:18;;;;;;;10.93;6.97;;;;;;;;;;5142558;27;20051;-75
2023/12/04 08:26:45;;;;;;;11.10;7.10;;;;;;;;;;5151958;27;20146;-74
2023/12/04 08:29:12;;;;;;;14.05;7.10;;;;;;;;;;5131854;27;20048;-75
2023/12/04 08:31:38;;;;;;;10.43;6.75;;;;;;;;;;5136634;27;20160;-74
2023/12/04 08:34:04;;;;;;;11.43;7.10;;;;;;;;;;5143090;27;20593;-75
2023/12/04 08:36:31;;;;;;;9.70;6.85;;;;;;;;;;5140876;27;20142;-74
2023/12/04 08:39:11;;;;;;;10.52;6.95;;;;;;;;;;5141492;27;20126;-75
2023/12/04 08:41:38;;;;;;;11.55;6.90;;;;;;;;;;5140451;27;20055;-75
2023/12/04 08:44:11;;;;;;;10.50;7.05;;;;;;;;;;5143609;27;20055;-75
2023/12/04 08:46:37;;;;;;;12.55;7.03;;;;;;;;;;5137501;27;20051;-74
2023/12/04 08:49:04;;;;;;;10.05;6.90;;;;;;;;;;5135079;27;20059;-75
2023/12/04 08:51:30;;;;;;;12.23;7.70;;;;;;;;;;5141192;27;20548;-75
2023/12/04 08:53:57;;;;;;;10.27;6.57;;;;;;;;;;5143430;27;20055;-75
2023/12/04 08:56:23;;;;;;;10.75;7.10;;;;;;;;;;5137913;27;20289;-75
2023/12/04 08:58:57;;;;;;;11.52;7.43;;;;;;;;;;5130609;27;20096;-74
2023/12/04 09:01:24;;;;;;;9.65;6.68;;;;;;;;;;5125453;27;20052;-75
2023/12/04 09:03:52;;;;;;;9.75;6.38;;;;;;;;;;5131891;27;20051;-75
2023/12/04 09:06:18;;;;;;;12.93;8.20;;;;;;;;;;5134681;27;20501;-74
2023/12/04 09:08:45;;;;;;;11.27;7.10;;;;;;;;;;5137113;27;20096;-75
2023/12/04 09:11:25;;;;;;;13.75;7.20;;;;;;;;;;5129424;27;20052;-75
2023/12/04 09:13:52;;;;;;;10.93;6.88;;;;;;;;;;5133253;27;20055;-75
2023/12/04 09:16:18;;;;;;;11.70;7.57;;;;;;;;;;5146580;27;20057;-75
2023/12/04 09:18:46;;;;;;;9.18;5.97;;;;;;;;;;5160776;27;20057;-75
2023/12/04 09:21:13;;;;;;;10.38;6.97;;;;;;;;;;5123623;27;20074;-75
2023/12/04 09:23:39;;;;;;;10.20;6.28;;;;;;;;;;5141024;27;20051;-75
2023/12/04 09:26:05;;;;;;;10.48;7.00;;;;;;;;;;5138967;27;20077;-75
2023/12/04 09:28:32;;;;;;;9.63;6.63;;;;;;;;;;5141324;27;20043;-74
2023/12/04 09:30:58;;;;;;;11.02;6.85;;;;;;;;;;5139619;27;20132;-75
2023/12/04 09:33:24;;;;;;;9.98;6.63;;;;;;;;;;5139949;27;20058;-75
2023/12/04 09:35:51;;;;;;;11.02;6.82;;;;;;;;;;5144614;27;20133;-74
2023/12/04 09:38:18;;;;;;;9.32;6.22;;;;;;;;;;5147817;27;20066;-75
2023/12/04 09:40:45;;;;;;;11.48;6.85;;;;;;;;;;5142810;27;20531;-75
2023/12/04 09:43:12;;;;;;;10.63;6.65;;;;;;;;;;5145245;27;20504;-75
2023/12/04 09:45:39;;;;;;;8.07;6.10;;;;;;;;;;5146779;27;20071;-75
2023/12/04 09:48:05;;;;;;;10.02;6.18;;;;;;;;;;5144853;27;20320;-75
2023/12/04 09:50:32;;;;;;;9.48;6.05;;;;;;;;;;5142281;27;20066;-74
2023/12/04 09:52:59;;;;;;;10.85;6.25;;;;;;;;;;5143707;27;21105;-75
2023/12/04 09:55:26;;;;;;;8.93;6.65;;;;;;;;;;5145763;27;20417;-74
2023/12/04 09:57:53;;;;;;;9.85;6.03;;;;;;;;;;5145244;27;20180;-74
2023/12/04 10:00:21;;;;;;;9.00;5.70;;;;;;;;;;5143832;27;20109;-74
2023/12/04 10:02:48;;;;;;;9.98;6.50;;;;;;;;;;5144499;27;20119;-74
2023/12/04 10:05:15;;;;;;;7.63;5.50;;;;;;;;;;5144560;27;20046;-75
2023/12/04 10:07:42;;;;;;;8.95;5.40;;;;;;;;;;5143926;27;20039;-75
2023/12/04 10:10:08;;;;;;;9.77;5.97;;;;;;;;;;5142972;27;20051;-75
2023/12/04 10:12:35;;;;;;;9.57;5.50;;;;;;;;;;5143727;27;20153;-75
2023/12/04 10:15:02;;;;;;;8.35;5.78;;;;;;;;;;5141573;27;20385;-75
2023/12/04 10:17:32;;;;;;;10.73;6.20;;;;;;;;;;5143685;27;20055;-76
2023/12/04 10:20:12;;;;;;;7.53;5.18;;;;;;;;;;5150109;27;20051;-75
2023/12/04 10:22:40;;;;;;;8.88;6.10;;;;;;;;;;5145139;27;20051;-75
2023/12/04 10:25:16;;;;;;;6.65;5.15;;;;;;;;;;5144029;27;20958;-75
2023/12/04 10:27:43;;;;;;;9.77;6.00;;;;;;;;;;5143750;27;20116;-75
2023/12/04 10:30:12;;;;;;;9.25;5.50;;;;;;;;;;5142334;27;20104;-75
2023/12/04 10:32:41;;;;;;;10.05;5.65;;;;;;;;;;5143937;27;20051;-75
2023/12/04 10:35:13;;;;;;;7.28;5.47;;;;;;;;;;5143667;27;20143;-75
2023/12/04 10:37:40;;;;;;;11.27;6.07;;;;;;;;;;5138308;27;20555;-75
2023/12/04 10:40:10;;;;;;;8.85;6.03;;;;;;;;;;5143402;27;20118;-75
2023/12/04 10:42:36;;;;;;;8.45;5.82;;;;;;;;;;5145274;27;20073;-75
2023/12/04 10:45:06;;;;;;;7.90;5.45;;;;;;;;;;5140662;27;20047;-74
2023/12/04 10:47:34;;;;;;;8.48;5.30;;;;;;;;;;5128646;27;20047;-75
2023/12/04 10:50:01;;;;;;;12.23;7.55;;;;;;;;;;5144737;27;20057;-75
2023/12/04 10:52:29;;;;;;;10.38;6.25;;;;;;;;;;5135462;27;20106;-75
2023/12/04 10:54:58;;;;;;;11.07;5.60;;;;;;;;;;5143503;27;20056;-74
2023/12/04 10:57:31;;;;;;;8.70;5.78;;;;;;;;;;5142048;27;20493;-75
2023/12/04 11:00:00;;;;;;;8.68;6.13;;;;;;;;;;5140128;27;20051;-74
2023/12/04 11:02:27;;;;;;;9.00;6.07;;;;;;;;;;5142169;27;20579;-74
2023/12/04 11:04:55;;;;;;;8.77;6.43;;;;;;;;;;5142951;27;20134;-74
2023/12/04 11:07:23;;;;;;;9.82;5.85;;;;;;;;;;5143678;27;20055;-74
2023/12/04 11:09:50;;;;;;;9.32;5.97;;;;;;;;;;5144856;27;20047;-74
2023/12/04 11:12:20;;;;;;;8.82;6.22;;;;;;;;;;5143202;27;20055;-74
2023/12/04 11:14:58;;;;;;;11.02;6.63;;;;;;;;;;5142447;27;20384;-75
2023/12/04 11:17:26;;;;;;;7.65;5.57;;;;;;;;;;5143962;27;20112;-75
2023/12/04 11:19:59;;;;;;;8.90;6.13;;;;;;;;;;5145151;27;20047;-75
2023/12/04 11:22:26;;;;;;;11.43;7.45;;;;;;;;;;5140867;27;20836;-75
2023/12/04 11:24:53;;;;;;;10.75;6.50;;;;;;;;;;5143628;27;20069;-75
2023/12/04 11:27:20;;;;;;;11.20;7.35;;;;;;;;;;5144385;27;20051;-75
2023/12/04 11:29:47;;;;;;;10.38;6.70;;;;;;;;;;5140751;27;20403;-74
2023/12/04 11:32:15;;;;;;;11.38;6.82;;;;;;;;;;5142057;27;20502;-75
2023/12/04 11:34:48;;;;;;;10.45;6.45;;;;;;;;;;5142286;27;20138;-75
2023/12/04 11:37:15;;;;;;;9.95;6.55;;;;;;;;;;5144215;27;20051;-74
2023/12/04 11:39:42;;;;;;;9.98;6.65;;;;;;;;;;5143287;27;20051;-76
2023/12/04 11:42:09;;;;;;;10.13;6.43;;;;;;;;;;5142618;27;20092;-76
2023/12/04 11:44:35;;;;;;;11.77;7.50;;;;;;;;;;5142593;27;20155;-75
2023/12/04 11:47:05;;;;;;;11.02;6.90;;;;;;;;;;5140968;27;20078;-74
2023/12/04 11:49:32;;;;;;;9.75;7.70;;;;;;;;;;5138878;27;20100;-75
2023/12/04 11:52:00;;;;;;;10.52;7.07;;;;;;;;;;5142069;27;20154;-75
2023/12/04 11:54:27;;;;;;;12.90;7.72;;;;;;;;;;5141128;27;20075;-74
2023/12/04 11:56:59;;;;;;;10.55;7.07;;;;;;;;;;5142392;27;20590;-74
2023/12/04 11:59:26;;;;;;;10.23;7.40;;;;;;;;;;5140184;27;20051;-75
2023/12/04 12:01:58;;;;;;;13.90;8.32;;;;;;;;;;5141815;27;20541;-74
2023/12/04 12:04:25;;;;;;;10.88;7.90;;;;;;;;;;5144133;27;20527;-74
2023/12/04 12:06:55;;;;;;;10.05;7.40;;;;;;;;;;5140619;27;20104;-74
2023/12/04 12:09:22;;;;;;;11.55;7.32;;;;;;;;;;5143319;27;20100;-74
2023/12/04 12:11:48;;;;;;;13.77;8.57;;;;;;;;;;5128968;27;20745;-74
2023/12/04 12:14:15;;;;;;;12.63;8.07;;;;;;;;;;5143487;27;20079;-75
2023/12/04 12:16:41;;;;;;;11.15;8.10;;;;;;;;;;5142226;27;20074;-74
2023/12/04 12:19:08;;;;;;;12.07;8.02;;;;;;;;;;5142002;27;20101;-76
2023/12/04 12:21:35;;;;;;;12.00;7.90;;;;;;;;;;5142467;27;20054;-76
2023/12/04 12:24:02;;;;;;;11.90;7.80;;;;;;;;;;5141595;27;20062;-76
2023/12/04 12:26:29;;;;;;;10.55;7.43;;;;;;;;;;5140668;27;20142;-76
2023/12/04 12:28:56;;;;;;;9.25;7.45;;;;;;;;;;5126536;27;20083;-76
2023/12/04 12:31:22;;;;;;;12.93;7.82;;;;;;;;;;5144124;27;20058;-75
2023/12/04 12:33:49;;;;;;;11.45;7.97;;;;;;;;;;5141572;27;20051;-76
2023/12/04 12:36:17;;;;;;;11.90;8.10;;;;;;;;;;5140960;27;20062;-76
2023/12/04 12:38:49;;;;;;;14.02;8.07;;;;;;;;;;5143957;27;20058;-76
2023/12/04 12:41:16;;;;;;;12.10;8.00;;;;;;;;;;5142445;27;20090;-76
2023/12/04 12:43:44;;;;;;;12.80;7.63;;;;;;;;;;5140696;27;20058;-76
2023/12/04 12:46:11;;;;;;;11.77;8.00;;;;;;;;;;5126631;27;20082;-76
2023/12/04 12:48:37;;;;;;;14.15;7.88;;;;;;;;;;5142883;27;20083;-76
2023/12/04 12:51:04;;;;;;;12.43;8.63;;;;;;;;;;5142258;27;20515;-76
2023/12/04 12:53:34;;;;;;;12.25;7.75;;;;;;;;;;5141459;27;20055;-75
2023/12/04 12:56:03;;;;;;;11.07;7.80;;;;;;;;;;5142488;27;20047;-75
2023/12/04 12:58:29;;;;;;;12.18;8.40;;;;;;;;;;5142278;27;20051;-76
2023/12/04 13:00:56;;;;;;;12.23;7.57;;;;;;;;;;5145860;27;20073;-76
2023/12/04 13:03:23;;;;;;;13.13;8.88;;;;;;;;;;5131300;27;20051;-76
2023/12/04 13:05:50;;;;;;;12.70;8.48;;;;;;;;;;5142896;27;20299;-76
2023/12/04 13:08:17;;;;;;;12.35;8.20;;;;;;;;;;5140987;27;20051;-76
2023/12/04 13:10:43;;;;;;;12.25;7.75;;;;;;;;;;5140798;27;20159;-76
2023/12/04 13:13:11;;;;;;;14.30;8.48;;;;;;;;;;5140297;27;20123;-76
2023/12/04 13:15:37;;;;;;;12.75;7.82;;;;;;;;;;5141934;27;20144;-76
2023/12/04 13:18:04;;;;;;;12.15;8.15;;;;;;;;;;5138977;27;20444;-76
2023/12/04 13:20:30;;;;;;;13.38;8.18;;;;;;;;;;5127027;27;20608;-76
2023/12/04 13:22:56;;;;;;;11.77;8.77;;;;;;;;;;5141916;27;20560;-76
2023/12/04 13:25:23;;;;;;;13.35;7.80;;;;;;;;;;5141429;27;20058;-75
2023/12/04 13:27:54;;;;;;;13.30;8.18;;;;;;;;;;5139041;27;20126;-75
2023/12/04 13:30:21;;;;;;;12.23;8.43;;;;;;;;;;5141179;27;20057;-75
2023/12/04 13:32:50;;;;;;;11.98;8.02;;;;;;;;;;5141419;27;20116;-75
2023/12/04 13:35:17;;;;;;;11.50;8.13;;;;;;;;;;5137741;27;20050;-75
2023/12/04 13:37:43;;;;;;;14.23;8.45;;;;;;;;;;5127877;27;20240;-75
2023/12/04 13:40:15;;;;;;;10.23;7.60;;;;;;;;;;5147354;27;20064;-74
2023/12/04 13:45:28;;;;;;;10.10;7.32;;;;;;;;;;5141016;27;20047;-74
2023/12/04 13:47:54;;;;;;;12.98;7.63;;;;;;;;;;5148167;27;20658;-74
2023/12/04 13:50:21;;;;;;;14.23;8.65;;;;;;;;;;5143411;27;20138;-74
2023/12/04 13:52:55;;;;;;;11.32;7.60;;;;;;;;;;5133454;27;20087;-75
2023/12/04 13:55:42;;;;;;;14.75;8.32;;;;;;;;;;5142124;27;20187;-74
2023/12/04 13:58:10;;;;;;;11.80;7.82;;;;;;;;;;5141469;27;20051;-75
2023/12/04 14:00:37;;;;;;;12.90;7.85;;;;;;;;;;5142610;27;20052;-74
2023/12/04 14:03:04;;;;;;;14.70;8.20;;;;;;;;;;5139311;27;20047;-74
2023/12/04 14:05:32;;;;;;;13.52;7.95;;;;;;;;;;5140405;27;20208;-74
2023/12/04 14:08:00;;;;;;;11.00;7.20;;;;;;;;;;5140499;27;20051;-75
2023/12/04 14:10:27;;;;;;;12.43;8.07;;;;;;;;;;5128033;27;20081;-74
2023/12/04 14:12:54;;;;;;;11.85;8.13;;;;;;;;;;5150502;27;20057;-74
2023/12/04 14:15:23;;;;;;;11.70;7.95;;;;;;;;;;5141228;27;20104;-74
2023/12/04 14:17:49;;;;;;;11.35;7.82;;;;;;;;;;5142105;27;20047;-74
2023/12/04 14:20:18;;;;;;;12.45;7.97;;;;;;;;;;5142243;27;20108;-74
2023/12/04 14:22:47;;;;;;;14.13;7.90;;;;;;;;;;5144551;27;20852;-76
2023/12/04 14:25:14;;;;;;;14.32;8.45;;;;;;;;;;5144977;27;20150;-76
2023/12/04 14:27:43;;;;;;;12.60;8.00;;;;;;;;;;5141229;27;20501;-77